createdAt,value
2018-05-08T00:00:25.527Z,75.20
2018-05-08T00:02:53.262Z,75.30
2018-05-08T00:05:21.624Z,75.30
2018-05-08T00:07:51.554Z,75.50
2018-05-08T00:10:19.089Z,75.50
2018-05-08T00:12:46.636Z,75.60
2018-05-08T00:15:14.819Z,75.40
2018-05-08T00:17:42.467Z,75.80
2018-05-08T00:20:10.917Z,76.20
2018-05-08T00:22:38.462Z,76.20
2018-05-08T00:25:05.986Z,76.20
2018-05-08T00:27:33.567Z,76.00
2018-05-08T00:30:01.621Z,76.20
2018-05-08T00:32:29.178Z,76.10
2018-05-08T00:34:57.588Z,76.10
2018-05-08T00:37:25.914Z,76.30
2018-05-08T00:39:53.435Z,76.30
2018-05-08T00:42:20.989Z,76.40
2018-05-08T00:44:50.860Z,76.20
2018-05-08T00:47:18.415Z,76.00
2018-05-08T00:49:45.947Z,76.30
2018-05-08T00:52:13.512Z,76.10
2018-05-08T00:54:52.915Z,76.20
2018-05-08T00:57:20.515Z,76.30
2018-05-08T00:59:48.865Z,76.00
2018-05-08T01:02:18.068Z,76.00
2018-05-08T01:04:46.360Z,76.00
2018-05-08T01:07:14.004Z,75.90
2018-05-08T01:09:43.297Z,76.30
2018-05-08T01:12:11.711Z,76.60
2018-05-08T01:14:39.238Z,76.60
2018-05-08T01:17:06.888Z,76.70
2018-05-08T01:19:35.123Z,76.40
2018-05-08T01:22:03.736Z,76.40
2018-05-08T01:24:31.263Z,76.60
2018-05-08T01:26:58.800Z,76.80
2018-05-08T01:29:26.340Z,76.80
2018-05-08T01:31:53.883Z,77.00
2018-05-08T01:34:21.407Z,77.20
2018-05-08T01:36:48.968Z,77.20
2018-05-08T01:39:16.605Z,77.50
2018-05-08T01:41:45.310Z,77.50
2018-05-08T01:44:12.868Z,77.50
2018-05-08T01:46:40.407Z,77.70
2018-05-08T01:49:07.979Z,77.70
2018-05-08T01:51:37.040Z,77.80
2018-05-08T01:54:05.365Z,77.20
2018-05-08T01:56:32.912Z,77.40
2018-05-08T01:59:00.470Z,78.20
2018-05-08T02:01:28.045Z,78.00
2018-05-08T02:03:56.432Z,77.80
2018-05-08T02:06:24.022Z,77.80
2018-05-08T02:08:51.579Z,77.70
2018-05-08T02:11:20.087Z,77.90
2018-05-08T02:13:47.666Z,77.90
2018-05-08T02:16:15.187Z,78.00
2018-05-08T02:18:42.767Z,77.50
2018-05-08T02:21:10.290Z,77.60
2018-05-08T02:23:37.844Z,77.60
2018-05-08T02:26:06.067Z,77.60
2018-05-08T02:28:33.651Z,77.40
2018-05-08T02:31:01.175Z,77.80
2018-05-08T02:33:28.726Z,77.80
2018-05-08T02:35:57.588Z,77.60
2018-05-08T02:38:25.132Z,77.70
2018-05-08T02:40:52.755Z,77.90
2018-05-08T02:43:21.126Z,78.10
2018-05-08T02:45:48.715Z,78.20
2018-05-08T02:48:16.263Z,78.40
2018-05-08T02:50:43.864Z,78.40
2018-05-08T02:53:11.414Z,78.80
2018-05-08T02:55:38.944Z,78.50
2018-05-08T02:58:07.263Z,78.80
2018-05-08T03:00:35.858Z,78.80
2018-05-08T03:03:04.175Z,79.30
2018-05-08T03:05:31.706Z,79.00
2018-05-08T03:07:59.267Z,79.10
2018-05-08T03:10:26.789Z,78.80
2018-05-08T03:12:55.428Z,78.80
2018-05-08T03:15:23.728Z,79.40
2018-05-08T03:17:52.633Z,79.20
2018-05-08T03:20:20.593Z,79.10
2018-05-08T03:22:48.264Z,79.10
2018-05-08T03:25:16.287Z,78.90
2018-05-08T03:27:43.822Z,79.10
2018-05-08T03:30:11.371Z,79.00
2018-05-08T03:32:40.789Z,79.20
2018-05-08T03:35:08.307Z,79.10
2018-05-08T03:37:36.023Z,79.30
2018-05-08T03:40:03.824Z,79.00
2018-05-08T03:42:32.471Z,79.80
2018-05-08T03:45:00.131Z,79.50
2018-05-08T03:47:27.665Z,79.30
2018-05-08T03:49:56.181Z,79.30
2018-05-08T03:52:24.488Z,79.00
2018-05-08T03:54:52.043Z,79.00
2018-05-08T03:57:19.771Z,79.00
2018-05-08T03:59:47.409Z,79.00
2018-05-08T04:02:28.007Z,79.10
2018-05-08T04:05:07.603Z,79.00
2018-05-08T04:07:46.844Z,78.90
2018-05-08T04:10:15.389Z,79.10
2018-05-08T04:12:42.916Z,78.80
2018-05-08T04:15:10.520Z,78.70
2018-05-08T04:17:38.079Z,78.50
2018-05-08T04:20:06.400Z,78.50
2018-05-08T04:22:33.930Z,78.50
2018-05-08T04:25:03.822Z,78.50
2018-05-08T04:27:31.347Z,78.30
2018-05-08T04:29:59.056Z,78.30
2018-05-08T04:32:26.600Z,78.20
2018-05-08T04:34:54.157Z,78.10
2018-05-08T04:37:22.451Z,77.50
2018-05-08T04:39:50.000Z,77.50
2018-05-08T04:42:17.519Z,77.40
2018-05-08T04:44:45.901Z,77.00
2018-05-08T04:47:13.423Z,77.00
2018-05-08T04:49:41.731Z,76.60
2018-05-08T04:52:10.101Z,76.60
2018-05-08T04:54:37.661Z,76.30
2018-05-08T04:57:05.217Z,76.10
2018-05-08T04:59:32.766Z,76.10
2018-05-08T05:02:01.121Z,75.80
2018-05-08T05:04:30.175Z,75.20
2018-05-08T05:06:57.804Z,75.20
2018-05-08T05:09:26.068Z,75.00
2018-05-08T05:11:53.623Z,75.00
2018-05-08T05:14:21.161Z,74.90
2018-05-08T05:16:49.665Z,74.50
2018-05-08T05:19:17.805Z,74.30
2018-05-08T05:21:45.354Z,74.20
2018-05-08T05:24:12.880Z,73.90
2018-05-08T05:26:40.423Z,73.70
2018-05-08T05:29:07.944Z,73.50
2018-05-08T05:31:35.980Z,73.40
2018-05-08T05:34:03.489Z,73.30
2018-05-08T05:36:31.744Z,73.00
2018-05-08T05:38:59.259Z,73.00
2018-05-08T05:41:26.917Z,72.80
2018-05-08T05:43:54.448Z,72.70
2018-05-08T05:46:23.247Z,72.80
2018-05-08T05:48:50.792Z,72.50
2018-05-08T05:51:18.376Z,72.30
2018-05-08T05:53:47.032Z,72.20
2018-05-08T05:56:14.606Z,71.90
2018-05-08T05:58:42.158Z,71.50
2018-05-08T06:01:09.870Z,71.20
2018-05-08T06:03:37.537Z,71.10
2018-05-08T06:06:06.758Z,70.80
2018-05-08T06:08:34.275Z,70.60
2018-05-08T06:11:01.920Z,70.80
2018-05-08T06:13:29.566Z,70.00
2018-05-08T06:15:58.383Z,69.30
2018-05-08T06:18:25.907Z,69.20
2018-05-08T06:20:53.439Z,69.60
2018-05-08T06:23:21.027Z,68.40
2018-05-08T06:25:48.572Z,68.40
2018-05-08T06:28:16.701Z,68.00
2018-05-08T06:30:44.242Z,68.00
2018-05-08T06:33:11.851Z,67.30
2018-05-08T06:35:40.149Z,66.70
2018-05-08T06:38:07.793Z,66.70
2018-05-08T06:40:35.369Z,66.70
2018-05-08T06:43:02.992Z,66.10
2018-05-08T06:45:30.524Z,65.90
2018-05-08T06:47:58.071Z,65.50
2018-05-08T06:50:25.601Z,65.10
2018-05-08T06:52:53.182Z,64.80
2018-05-08T06:55:20.709Z,65.10
2018-05-08T06:57:48.260Z,65.20
2018-05-08T07:00:15.887Z,64.10
2018-05-08T07:02:43.442Z,63.60
2018-05-08T07:05:10.963Z,63.80
2018-05-08T07:07:39.574Z,62.70
2018-05-08T07:10:07.116Z,62.70
2018-05-08T07:12:34.671Z,62.40
2018-05-08T07:15:02.954Z,62.10
2018-05-08T07:17:31.433Z,62.10
2018-05-08T07:19:59.772Z,61.00
2018-05-08T07:22:27.340Z,60.90
2018-05-08T07:24:55.627Z,59.60
2018-05-08T07:27:23.170Z,59.60
2018-05-08T07:29:50.683Z,59.50
2018-05-08T07:32:18.272Z,59.30
2018-05-08T07:34:45.828Z,59.60
2018-05-08T07:37:14.017Z,59.00
2018-05-08T07:39:41.568Z,59.00
2018-05-08T07:42:09.213Z,58.80
2018-05-08T07:44:36.784Z,58.40
2018-05-08T07:47:05.179Z,58.10
2018-05-08T07:49:32.761Z,58.00
2018-05-08T07:52:01.843Z,56.70
2018-05-08T07:54:29.367Z,56.70
2018-05-08T07:56:56.896Z,56.70
2018-05-08T07:59:24.450Z,57.20
2018-05-08T08:01:52.039Z,57.20
2018-05-08T08:04:19.631Z,56.80
2018-05-08T08:06:47.189Z,57.20
2018-05-08T08:09:15.043Z,55.50
2018-05-08T08:11:42.640Z,55.70
2018-05-08T08:14:10.247Z,55.80
2018-05-08T08:16:37.783Z,55.30
2018-05-08T08:19:05.373Z,55.50
2018-05-08T08:21:32.920Z,55.00
2018-05-08T08:24:00.487Z,54.40
2018-05-08T08:26:28.024Z,54.60
2018-05-08T08:28:55.567Z,54.90
2018-05-08T08:31:23.217Z,55.00
2018-05-08T08:33:50.835Z,54.70
2018-05-08T08:36:19.119Z,52.60
2018-05-08T08:38:46.679Z,52.60
2018-05-08T08:41:14.210Z,51.00
2018-05-08T08:43:41.909Z,49.10
2018-05-08T08:46:09.427Z,47.50
2018-05-08T08:48:36.979Z,47.10
2018-05-08T08:51:04.503Z,45.60
2018-05-08T08:53:32.051Z,46.90
2018-05-08T08:56:00.611Z,46.90
2018-05-08T08:58:28.288Z,48.00
2018-05-08T09:00:55.808Z,48.60
2018-05-08T09:03:23.355Z,47.90
2018-05-08T09:05:50.895Z,45.70
2018-05-08T09:08:18.655Z,46.00
2018-05-08T09:10:46.208Z,46.30
2018-05-08T09:13:13.739Z,46.20
2018-05-08T09:15:41.291Z,46.30
2018-05-08T09:18:08.815Z,45.10
2018-05-08T09:20:36.390Z,44.30
2018-05-08T09:23:04.019Z,42.50
2018-05-08T09:25:32.221Z,41.70
2018-05-08T09:27:59.783Z,41.60
2018-05-08T09:30:27.344Z,41.40
2018-05-08T09:32:55.707Z,38.80
2018-05-08T09:35:24.173Z,38.80
2018-05-08T09:37:51.695Z,38.70
2018-05-08T09:40:20.738Z,39.50
2018-05-08T09:42:48.259Z,39.50
2018-05-08T09:45:15.841Z,39.30
2018-05-08T09:47:43.354Z,39.60
2018-05-08T09:50:10.914Z,39.70
2018-05-08T09:52:38.450Z,39.80
2018-05-08T09:55:05.995Z,39.90
2018-05-08T09:57:33.538Z,40.10
2018-05-08T10:00:01.175Z,40.00
2018-05-08T10:02:28.732Z,39.80
2018-05-08T10:04:56.288Z,39.30
2018-05-08T10:07:24.876Z,38.80
2018-05-08T10:09:52.539Z,39.10
2018-05-08T10:12:20.235Z,39.30
2018-05-08T10:14:48.092Z,39.90
2018-05-08T10:17:15.612Z,40.70
2018-05-08T10:19:43.210Z,40.80
2018-05-08T10:22:10.722Z,40.60
2018-05-08T10:24:38.323Z,40.00
2018-05-08T10:27:05.944Z,40.30
2018-05-08T10:29:33.557Z,40.20
2018-05-08T10:32:01.077Z,40.70
2018-05-08T10:34:28.736Z,40.90
2018-05-08T10:36:56.330Z,40.60
2018-05-08T10:39:23.897Z,40.80
2018-05-08T10:41:52.232Z,39.70
2018-05-08T10:44:19.758Z,39.50
2018-05-08T10:46:47.381Z,39.60
2018-05-08T10:49:14.902Z,38.80
2018-05-08T10:51:43.220Z,38.40
2018-05-08T10:54:10.759Z,38.30
2018-05-08T10:56:38.315Z,38.20
2018-05-08T10:59:05.901Z,37.90
2018-05-08T11:01:34.213Z,36.70
2018-05-08T11:04:02.455Z,36.60
2018-05-08T11:06:30.066Z,36.80
2018-05-08T11:08:58.591Z,36.80
2018-05-08T11:11:27.463Z,36.70
2018-05-08T11:13:54.987Z,36.70
2018-05-08T11:16:22.531Z,36.30
2018-05-08T11:18:50.146Z,35.80
2018-05-08T11:21:18.535Z,36.90
2018-05-08T11:23:46.096Z,36.80
2018-05-08T11:26:14.374Z,36.80
2018-05-08T11:28:41.899Z,36.70
2018-05-08T11:31:09.464Z,36.50
2018-05-08T11:33:41.109Z,35.70
2018-05-08T11:36:08.735Z,35.90
2018-05-08T11:38:36.289Z,36.50
2018-05-08T11:41:03.961Z,36.40
2018-05-08T11:43:31.564Z,36.40
2018-05-08T11:45:59.127Z,36.40
2018-05-08T11:48:26.659Z,36.10
2018-05-08T11:50:54.208Z,36.00
2018-05-08T11:53:21.745Z,36.40
2018-05-08T11:55:49.294Z,36.70
2018-05-08T11:58:17.579Z,37.20
2018-05-08T12:00:45.156Z,37.30
2018-05-08T12:03:13.465Z,37.60
2018-05-08T12:05:42.269Z,37.60
2018-05-08T12:08:09.808Z,38.00
2018-05-08T12:10:37.366Z,38.20
2018-05-08T12:13:04.908Z,38.50
2018-05-08T12:15:33.357Z,39.10
2018-05-08T12:18:00.991Z,38.50
2018-05-08T12:20:28.853Z,38.60
2018-05-08T12:22:56.415Z,39.00
2018-05-08T12:25:24.026Z,38.80
2018-05-08T12:27:51.647Z,38.50
2018-05-08T12:30:19.217Z,38.40
2018-05-08T12:32:46.804Z,38.80
2018-05-08T12:35:14.633Z,39.00
2018-05-08T12:37:42.527Z,38.60
2018-05-08T12:40:10.095Z,38.40
2018-05-08T12:42:38.091Z,38.80
2018-05-08T12:45:05.713Z,38.70
2018-05-08T12:47:33.575Z,38.80
2018-05-08T12:50:01.102Z,38.70
2018-05-08T12:52:29.742Z,38.70
2018-05-08T12:54:57.389Z,39.00
2018-05-08T12:57:25.564Z,38.90
2018-05-08T12:59:53.100Z,38.90
2018-05-08T13:02:22.526Z,38.90
2018-05-08T13:04:50.078Z,39.00
2018-05-08T13:07:17.649Z,38.30
2018-05-08T13:09:47.395Z,38.10
2018-05-08T13:12:15.134Z,38.10
2018-05-08T13:14:42.656Z,37.50
2018-05-08T13:17:10.206Z,37.00
2018-05-08T13:19:37.875Z,36.40
2018-05-08T13:22:05.451Z,36.80
2018-05-08T13:24:33.075Z,37.00
2018-05-08T13:27:00.648Z,36.60
2018-05-08T13:29:28.191Z,36.30
2018-05-08T13:31:55.743Z,36.10
2018-05-08T13:34:23.282Z,36.00
2018-05-08T13:36:50.818Z,36.00
2018-05-08T13:39:18.380Z,36.30
2018-05-08T13:41:45.996Z,36.30
2018-05-08T13:44:13.579Z,36.00
2018-05-08T13:46:41.899Z,35.60
2018-05-08T13:49:09.443Z,35.50
2018-05-08T13:51:37.204Z,35.80
2018-05-08T13:54:05.516Z,34.60
2018-05-08T13:56:33.820Z,33.30
2018-05-08T13:59:01.372Z,33.30
2018-05-08T14:01:28.923Z,33.60
2018-05-08T14:03:58.079Z,33.70
2018-05-08T14:06:26.551Z,32.90
2018-05-08T14:08:54.090Z,33.20
2018-05-08T14:11:21.875Z,33.50
2018-05-08T14:13:49.807Z,33.50
2018-05-08T14:16:17.351Z,33.70
2018-05-08T14:18:44.988Z,33.70
2018-05-08T14:21:12.532Z,33.40
2018-05-08T14:23:40.170Z,33.50
2018-05-08T14:26:07.827Z,33.80
2018-05-08T14:28:35.960Z,34.10
2018-05-08T14:31:03.492Z,33.90
2018-05-08T14:33:32.823Z,33.40
2018-05-08T14:36:00.383Z,33.40
2018-05-08T14:38:28.009Z,32.70
2018-05-08T14:40:56.975Z,33.00
2018-05-08T14:43:24.555Z,32.90
2018-05-08T14:45:52.094Z,32.70
2018-05-08T14:48:19.640Z,32.30
2018-05-08T14:50:47.180Z,32.60
2018-05-08T14:53:14.744Z,32.50
2018-05-08T14:55:42.661Z,32.30
2018-05-08T14:58:10.456Z,32.80
2018-05-08T15:00:38.813Z,33.60
2018-05-08T15:03:07.275Z,32.90
2018-05-08T15:05:35.783Z,32.80
2018-05-08T15:08:03.356Z,32.80
2018-05-08T15:10:33.979Z,32.20
2018-05-08T15:13:01.612Z,32.20
2018-05-08T15:15:29.164Z,31.50
2018-05-08T15:17:56.698Z,31.10
2018-05-08T15:20:24.242Z,31.20
2018-05-08T15:22:51.823Z,30.60
2018-05-08T15:25:19.816Z,30.80
2018-05-08T15:27:47.347Z,30.80
2018-05-08T15:30:15.660Z,29.90
2018-05-08T15:32:43.205Z,29.90
2018-05-08T15:35:11.676Z,29.60
2018-05-08T15:37:39.381Z,29.40
2018-05-08T15:40:06.953Z,28.90
2018-05-08T15:42:35.980Z,28.50
2018-05-08T15:45:03.583Z,28.10
2018-05-08T15:47:31.110Z,27.90
2018-05-08T15:49:58.653Z,27.30
2018-05-08T15:52:26.255Z,26.90
2018-05-08T15:54:53.804Z,25.90
2018-05-08T15:57:22.116Z,24.60
2018-05-08T15:59:49.708Z,24.50
2018-05-08T16:02:18.120Z,24.40
2018-05-08T16:04:46.375Z,23.20
2018-05-08T16:07:13.899Z,23.10
2018-05-08T16:09:42.258Z,22.10
2018-05-08T16:12:09.813Z,22.10
2018-05-08T16:14:37.492Z,22.00
2018-05-08T16:17:05.518Z,21.40
2018-05-08T16:19:34.898Z,20.80
2018-05-08T16:22:03.195Z,20.70
2018-05-08T16:24:30.772Z,20.70
2018-05-08T16:26:58.342Z,21.00
2018-05-08T16:29:26.631Z,20.00
2018-05-08T16:31:54.271Z,19.90
2018-05-08T16:34:21.795Z,19.60
2018-05-08T16:36:50.164Z,19.70
2018-05-08T16:39:18.947Z,19.60
2018-05-08T16:41:46.541Z,19.60
2018-05-08T16:44:14.104Z,19.60
2018-05-08T16:46:41.662Z,20.30
2018-05-08T16:49:10.014Z,19.80
2018-05-08T16:51:38.367Z,20.50
2018-05-08T16:54:06.108Z,20.00
2018-05-08T16:56:35.403Z,20.30
2018-05-08T16:59:03.725Z,20.40
2018-05-08T17:01:31.289Z,20.40
2018-05-08T17:03:59.043Z,20.30
2018-05-08T17:06:26.592Z,20.40
2018-05-08T17:08:54.149Z,20.60
2018-05-08T17:11:21.745Z,20.40
2018-05-08T17:13:49.299Z,20.80
2018-05-08T17:16:16.949Z,20.40
2018-05-08T17:18:44.722Z,20.70
2018-05-08T17:21:12.656Z,20.50
2018-05-08T17:23:40.214Z,20.80
2018-05-08T17:26:07.789Z,20.60
2018-05-08T17:28:36.267Z,20.80
2018-05-08T17:31:03.860Z,20.80
2018-05-08T17:33:31.596Z,21.10
2018-05-08T17:35:59.116Z,21.20
2018-05-08T17:38:27.436Z,21.40
2018-05-08T17:40:55.597Z,21.40
2018-05-08T17:43:23.114Z,21.50
2018-05-08T17:45:50.856Z,21.80
2018-05-08T17:48:18.370Z,22.40
2018-05-08T17:50:46.734Z,22.80
2018-05-08T17:53:14.432Z,22.80
2018-05-08T17:55:42.039Z,23.20
2018-05-08T17:58:09.733Z,23.30
2018-05-08T18:00:37.348Z,23.60
2018-05-08T18:03:05.200Z,23.80
2018-05-08T18:05:32.811Z,24.30
2018-05-08T18:08:01.146Z,25.60
2018-05-08T18:10:28.994Z,25.50
2018-05-08T18:12:56.588Z,26.40
2018-05-08T18:15:26.910Z,27.40
2018-05-08T18:17:55.407Z,28.10
2018-05-08T18:20:22.942Z,29.10
2018-05-08T18:22:50.497Z,29.80
2018-05-08T18:25:20.302Z,30.80
2018-05-08T18:27:48.649Z,33.00
2018-05-08T18:30:16.248Z,32.40
2018-05-08T18:32:43.831Z,32.90
2018-05-08T18:35:11.419Z,34.00
2018-05-08T18:37:40.788Z,34.90
2018-05-08T18:40:09.190Z,36.10
2018-05-08T18:42:37.546Z,35.90
2018-05-08T18:45:05.843Z,36.80
2018-05-08T18:47:34.622Z,36.80
2018-05-08T18:50:02.220Z,37.80
2018-05-08T18:52:33.041Z,38.70
2018-05-08T18:55:02.842Z,38.60
2018-05-08T18:57:31.182Z,39.70
2018-05-08T19:00:04.657Z,40.30
2018-05-08T19:02:32.992Z,39.80
2018-05-08T19:05:00.797Z,40.50
2018-05-08T19:07:29.120Z,41.00
2018-05-08T19:09:56.768Z,41.00
2018-05-08T19:12:24.356Z,41.40
2018-05-08T19:14:57.722Z,41.90
2018-05-08T19:17:25.374Z,42.10
2018-05-08T19:19:59.529Z,43.10
2018-05-08T19:22:27.080Z,43.00
2018-05-08T19:24:54.611Z,43.20
2018-05-08T19:27:22.801Z,43.40
2018-05-08T19:29:55.915Z,43.80
2018-05-08T19:32:24.606Z,44.30
2018-05-08T19:34:57.834Z,44.30
2018-05-08T19:37:31.184Z,44.60
2018-05-08T19:39:58.758Z,44.80
2018-05-08T19:42:27.104Z,44.90
2018-05-08T19:44:54.684Z,45.10
2018-05-08T19:47:22.255Z,45.50
2018-05-08T19:49:51.619Z,45.80
2018-05-08T19:52:19.999Z,46.30
2018-05-08T19:54:47.584Z,46.30
2018-05-08T19:57:15.158Z,46.50
2018-05-08T19:59:43.615Z,46.80
2018-05-08T20:02:17.771Z,47.10
2018-05-08T20:04:45.342Z,47.50
2018-05-08T20:07:15.450Z,47.30
2018-05-08T20:09:43.063Z,47.30
2018-05-08T20:12:10.712Z,47.40
2018-05-08T20:14:38.577Z,47.30
2018-05-08T20:17:06.109Z,47.20
2018-05-08T20:19:33.784Z,47.60
2018-05-08T20:22:01.337Z,47.70
2018-05-08T20:24:28.883Z,47.60
2018-05-08T20:26:56.519Z,47.30
2018-05-08T20:29:24.085Z,47.30
2018-05-08T20:31:51.605Z,47.50
2018-05-08T20:34:19.161Z,47.40
2018-05-08T20:36:46.687Z,47.40
2018-05-08T20:39:14.231Z,47.60
2018-05-08T20:41:41.879Z,47.50
2018-05-08T20:44:09.430Z,47.70
2018-05-08T20:46:37.054Z,47.70
2018-05-08T20:49:04.630Z,47.70
2018-05-08T20:51:32.187Z,47.90
2018-05-08T20:53:59.741Z,47.90
2018-05-08T20:56:27.267Z,47.80
2018-05-08T20:58:54.839Z,47.80
2018-05-08T21:01:23.267Z,48.70
2018-05-08T21:03:50.728Z,48.00
2018-05-08T21:06:18.457Z,48.00
2018-05-08T21:08:46.827Z,48.10
2018-05-08T21:11:16.612Z,48.10
2018-05-08T21:13:44.262Z,48.10
2018-05-08T21:16:11.812Z,48.20
2018-05-08T21:18:39.366Z,48.30
2018-05-08T21:21:06.922Z,48.40
2018-05-08T21:23:34.490Z,48.30
2018-05-08T21:26:02.820Z,48.90
2018-05-08T21:28:35.971Z,48.90
2018-05-08T21:31:09.087Z,48.90
2018-05-08T21:33:36.752Z,49.00
2018-05-08T21:36:04.308Z,49.10
2018-05-08T21:38:31.847Z,49.00
2018-05-08T21:41:00.149Z,49.40
2018-05-08T21:43:27.675Z,49.40
2018-05-08T21:45:55.219Z,49.30
2018-05-08T21:48:22.796Z,49.20
2018-05-08T21:50:50.761Z,49.30
2018-05-08T21:53:19.068Z,49.50
2018-05-08T21:55:46.767Z,49.50
2018-05-08T21:58:14.459Z,49.80
2018-05-08T22:00:42.591Z,49.60
2018-05-08T22:03:10.892Z,49.90
2018-05-08T22:05:38.453Z,49.90
2018-05-08T22:08:06.751Z,50.20
2018-05-08T22:10:34.303Z,50.50
2018-05-08T22:13:01.838Z,51.00
2018-05-08T22:15:29.672Z,51.40
2018-05-08T22:17:57.217Z,51.50
2018-05-08T22:20:25.543Z,51.90
2018-05-08T22:22:53.073Z,52.10
2018-05-08T22:25:20.659Z,52.30
2018-05-08T22:27:48.184Z,52.70
2018-05-08T22:30:18.109Z,52.90
2018-05-08T22:32:45.622Z,53.00
2018-05-08T22:35:13.180Z,53.20
2018-05-08T22:37:40.699Z,53.50
2018-05-08T22:40:08.264Z,53.70
2018-05-08T22:42:35.821Z,54.00
2018-05-08T22:45:08.349Z,54.40
2018-05-08T22:47:35.878Z,54.70
2018-05-08T22:50:04.192Z,54.90
2018-05-08T22:52:33.375Z,54.90
2018-05-08T22:55:00.935Z,55.10
2018-05-08T22:57:28.454Z,55.20
2018-05-08T22:59:56.068Z,55.50
2018-05-08T23:02:24.530Z,55.90
2018-05-08T23:04:52.050Z,55.90
2018-05-08T23:07:19.595Z,55.90
2018-05-08T23:09:47.305Z,56.00
2018-05-08T23:12:14.860Z,56.00
2018-05-08T23:14:42.383Z,56.30
2018-05-08T23:17:09.924Z,56.30
2018-05-08T23:19:37.438Z,56.30
2018-05-08T23:22:05.954Z,56.60
2018-05-08T23:24:33.479Z,56.60
2018-05-08T23:27:01.018Z,56.80
2018-05-08T23:29:28.534Z,56.90
2018-05-08T23:31:56.834Z,57.10
2018-05-08T23:34:24.369Z,57.00
2018-05-08T23:36:51.913Z,57.20
2018-05-08T23:39:19.812Z,57.50
2018-05-08T23:41:47.367Z,57.40
2018-05-08T23:44:16.539Z,57.90
2018-05-08T23:46:44.080Z,57.90
2018-05-08T23:49:11.625Z,58.20
2018-05-08T23:51:39.249Z,58.90
2018-05-08T23:54:07.033Z,58.60
2018-05-08T23:56:34.595Z,58.60
2018-05-08T23:59:02.997Z,59.00
